Flood From: 22-02-2018 06:00 Until: 23-02-2018 06:00 warning for: Flood Level: Yellow info button

Although rather usual in this region, locally or potentially dangerous phenomena are expected. (such as local winds, summer thunderstorms, rising streams or high waves) Be aware and pay attention to the latest weather updates, especially if you carry out activities exposed to weather or close to a stream or shoreline. 


Meteo18 Weather Cam more information Meteo18 Weather Cam


Thunder radar more information blitzortung!


Rain radar more information rain snow radar


Visit our other weather sites:

Template documentation
and downloads

And another site



Weather Underground History page Text

Daily Summary for February 22, 2018 Units:  English    Metric   Both
« Previous Day
Next Day »
Daily Weekly Monthly Yearly Custom
  Current: High: Low: Average:
Temperature: -2.3 °F TemperatureC °F -2.3 °F -1.1 °F
Dew Point: -4.0 °F DewpointC °F -4.0 °F -2.8 °F
Humidity: 88 % Humidity % 86 % 87 %
Wind Speed: 11.1 mph WindSpeedKMH mph 1.4 mph 10.6 mph
Wind Gust: 11.3 mph WindSpeedGustKMH mph - -
Wind:North - - SSE
Pressure: 1014.8 in PressurehPa in 1014.8 in -
Precipitation: 0.0 in      
Historical Graphs
 
 
Tabular Data for February 22, 2018
Time Temperature Dew Point Pressure Wind Wind Speed Wind Gust Humidity Rainfall Rate (Hourly)
TemperatureC °F DewpointC °F PressurehPa in Calm     Humidity % HourlyPrecipMM in
00:00 0.2 °F -1.6 °F 1016.8 in NNW 6.4 mph 19.3 mph 88 % 0.0 in
00:06 0.2 °F -1.6 °F 1016.8 in North 24.1 mph 24.1 mph 88 % 0.0 in
00:12 0.1 °F -1.7 °F 1016.8 in NE 13.0 mph 17.7 mph 88 % 0.0 in
00:18 0.1 °F -1.7 °F 1016.8 in NE 11.1 mph 25.7 mph 88 % 0.0 in
00:24 0.2 °F -1.7 °F 1016.8 in NW 1.4 mph 22.5 mph 87 % 0.0 in
00:30 0.1 °F -1.7 °F 1016.8 in NNE 16.3 mph 27.4 mph 88 % 0.0 in
00:36 0.1 °F -1.8 °F 1016.8 in NE 9.7 mph 20.9 mph 87 % 0.0 in
00:42 0.0 °F -1.9 °F 1016.8 in NNE 14.3 mph 19.3 mph 87 % 0.0 in
00:48 -0.1 °F -2.0 °F 1016.8 in NNE 11.1 mph 19.3 mph 87 % 0.0 in
00:54 -0.1 °F -2.0 °F 1016.5 in North 13.0 mph 19.3 mph 87 % 0.0 in
01:00 -0.1 °F -2.0 °F 1016.5 in NE 11.1 mph 14.5 mph 87 % 0.0 in
01:06 -0.1 °F -2.0 °F 1016.5 in NNE 7.9 mph 17.7 mph 87 % 0.0 in
01:12 -0.1 °F -2.0 °F 1016.5 in NNW 20.9 mph 24.1 mph 87 % 0.0 in
01:18 -0.1 °F -2.2 °F 1016.5 in NNE 11.1 mph 22.5 mph 86 % 0.0 in
01:24 -0.2 °F -2.3 °F 1016.5 in NNE 9.7 mph 17.7 mph 86 % 0.0 in
01:30 -0.2 °F -2.1 °F 1016.1 in North 6.4 mph 20.9 mph 87 % 0.0 in
01:36 -0.2 °F -2.1 °F 1016.5 in NNE 9.7 mph 16.1 mph 87 % 0.0 in
01:42 -0.4 °F -2.3 °F 1016.1 in North 11.1 mph 19.3 mph 87 % 0.0 in
01:48 -0.4 °F -2.1 °F 1016.1 in NNE 11.1 mph 24.1 mph 88 % 0.0 in
01:54 -0.5 °F -2.2 °F 1016.1 in NNE 13.0 mph 24.1 mph 88 % 0.0 in
02:00 -0.6 °F -2.3 °F 1016.1 in NNE 9.7 mph 27.4 mph 88 % 0.0 in
02:06 -0.6 °F -2.3 °F 1016.1 in NE 14.3 mph 17.7 mph 88 % 0.0 in
02:12 -0.7 °F -2.4 °F 1016.1 in NE 25.9 mph 25.9 mph 88 % 0.0 in
02:18 -0.7 °F -2.4 °F 1016.1 in NNE 13.0 mph 19.3 mph 88 % 0.0 in
02:24 -0.8 °F -2.5 °F 1016.1 in NNE 13.0 mph 25.7 mph 88 % 0.0 in
02:30 -0.8 °F -2.5 °F 1016.1 in NNW 13.0 mph 22.5 mph 88 % 0.0 in
02:36 -0.8 °F -2.5 °F 1016.1 in NE 9.7 mph 17.7 mph 88 % 0.0 in
02:42 -0.9 °F -2.6 °F 1016.1 in NNW 4.7 mph 19.3 mph 88 % 0.0 in
02:48 -0.9 °F -2.6 °F 1015.8 in NW 6.4 mph 14.5 mph 88 % 0.0 in
02:54 -0.9 °F -2.6 °F 1015.8 in NNE 13.0 mph 20.9 mph 88 % 0.0 in
03:00 -0.9 °F -2.6 °F 1015.8 in North 22.7 mph 22.7 mph 88 % 0.0 in
03:06 -0.9 °F -2.8 °F 1015.8 in NE 14.3 mph 16.1 mph 87 % 0.0 in
03:12 -0.9 °F -2.8 °F 1015.8 in NNE 11.1 mph 24.1 mph 87 % 0.0 in
03:20 -0.9 °F -2.8 °F 1015.8 in North 7.9 mph 19.3 mph 87 % 0.0 in
03:26 -0.9 °F -2.8 °F 1015.8 in NNW 7.9 mph 20.9 mph 87 % 0.0 in
03:32 -1.0 °F -2.9 °F 1015.8 in NE 16.3 mph 19.3 mph 87 % 0.0 in
03:38 -1.0 °F -2.9 °F 1015.5 in NW 4.7 mph 16.1 mph 87 % 0.0 in
03:44 -1.0 °F -2.9 °F 1015.5 in NNW 14.3 mph 19.3 mph 87 % 0.0 in
03:50 -1.1 °F -3.0 °F 1015.5 in NNW 7.9 mph 19.3 mph 87 % 0.0 in
03:56 -1.1 °F -3.0 °F 1015.5 in NNE 16.3 mph 19.3 mph 87 % 0.0 in
04:02 -1.2 °F -3.1 °F 1015.5 in NNW 4.7 mph 17.7 mph 87 % 0.0 in
04:08 -1.2 °F -3.1 °F 1015.5 in NNW 6.4 mph 14.5 mph 87 % 0.0 in
04:14 -1.3 °F -3.2 °F 1015.1 in NNW 6.4 mph 14.5 mph 87 % 0.0 in
04:20 -1.3 °F -3.0 °F 1015.1 in NNE 7.9 mph 14.5 mph 88 % 0.0 in
04:26 -1.4 °F -3.3 °F 1015.1 in NNE 4.7 mph 17.7 mph 87 % 0.0 in
04:32 -1.4 °F -3.1 °F 1015.1 in NNW 6.4 mph 12.9 mph 88 % 0.0 in
04:38 -1.4 °F -3.1 °F 1015.1 in North 13.0 mph 17.7 mph 88 % 0.0 in
04:44 -1.5 °F -3.2 °F 1015.1 in NNW 9.7 mph 11.3 mph 88 % 0.0 in
04:50 -1.6 °F -3.3 °F 1015.1 in North 11.1 mph 16.1 mph 88 % 0.0 in
04:56 -1.6 °F -3.3 °F 1015.1 in NNE 11.1 mph 19.3 mph 88 % 0.0 in
05:03 -1.7 °F -3.4 °F 1015.1 in North 6.4 mph 17.7 mph 88 % 0.0 in
05:09 -1.7 °F -3.3 °F 1015.1 in North 11.1 mph 16.1 mph 89 % 0.0 in
05:15 -1.7 °F -3.3 °F 1015.1 in NW 7.9 mph 22.5 mph 89 % 0.0 in
05:21 -1.7 °F -3.4 °F 1015.1 in NNE 13.0 mph 22.5 mph 88 % 0.0 in
05:27 -1.7 °F -3.4 °F 1015.1 in North 13.0 mph 17.7 mph 88 % 0.0 in
05:33 -1.7 °F -3.4 °F 1015.1 in NW 11.1 mph 19.3 mph 88 % 0.0 in
05:39 -1.7 °F -3.4 °F 1015.1 in North 14.3 mph 17.7 mph 88 % 0.0 in
05:45 -1.7 °F -3.4 °F 1015.1 in North 6.4 mph 20.9 mph 88 % 0.0 in
06:03 -1.8 °F -3.4 °F 1015.1 in NNE 4.7 mph 12.9 mph 89 % 0.0 in
06:09 -1.8 °F -3.4 °F 1015.1 in North 9.7 mph 12.9 mph 89 % 0.0 in
06:15 -1.9 °F -3.5 °F 1015.1 in NNW 11.1 mph 14.5 mph 89 % 0.0 in
06:21 -1.9 °F -3.5 °F 1015.1 in North 9.7 mph 17.7 mph 89 % 0.0 in
06:27 -2.0 °F -3.6 °F 1015.1 in North 11.1 mph 25.7 mph 89 % 0.0 in
06:33 -2.0 °F -3.6 °F 1015.1 in NE 7.9 mph 19.3 mph 89 % 0.0 in
06:39 -2.1 °F -3.7 °F 1015.1 in NNE 7.9 mph 20.9 mph 89 % 0.0 in
06:45 -2.1 °F -3.7 °F 1015.1 in NE 7.9 mph 12.9 mph 89 % 0.0 in
06:51 -2.1 °F -3.7 °F 1015.1 in NNE 25.9 mph 25.9 mph 89 % 0.0 in
06:57 -2.1 °F -3.7 °F 1015.1 in NE 14.3 mph 19.3 mph 89 % 0.0 in
07:03 -2.2 °F -3.8 °F 1015.1 in North 4.7 mph 12.9 mph 89 % 0.0 in
07:09 -2.2 °F -3.8 °F 1015.1 in North 3.2 mph 20.9 mph 89 % 0.0 in
07:15 -2.2 °F -3.8 °F 1014.8 in NNW 20.9 mph 20.9 mph 89 % 0.0 in
07:21 -2.2 °F -3.8 °F 1014.8 in NNE 4.7 mph 17.7 mph 89 % 0.0 in
07:27 -2.2 °F -3.8 °F 1014.8 in North 4.7 mph 19.3 mph 89 % 0.0 in
07:33 -2.2 °F -3.9 °F 1014.8 in NNE 6.4 mph 14.5 mph 88 % 0.0 in
07:39 -2.3 °F -4.0 °F 1014.8 in North 11.1 mph 11.3 mph 88 % 0.0 in
Meteo18
Compliments of Weather Underground - 4 mb

Script developed by  Jim McMurry - jmcmurry@mwt.net Adapted for the template by  Wim van der Kuil - Leuven-Template.eu

You find our weather info also at:

European Weather Network

Weather Underground

Equipment we use:

Weather-station
Davis Vue

Weather-program
Meteobridge

Weather-server
Raspberry PI 2 B+

Provider
1 and 1

Davis Vue

Meteobridge

Raspberry PI 2 B+

1 and 1